sensor_id;sensor_type;location;lat;lon;timestamp;temperature;humidity
8557;DHT22;4316;53.840;10.762;2023-02-12T00:00:00;7.50;99.90
8557;DHT22;4316;53.840;10.762;2023-02-12T00:02:26;7.60;99.90
8557;DHT22;4316;53.840;10.762;2023-02-12T00:04:52;7.50;99.90
8557;DHT22;4316;53.840;10.762;2023-02-12T00:07:18;7.50;99.90
8557;DHT22;4316;53.840;10.762;2023-02-12T00:09:43;7.50;99.90
8557;DHT22;4316;53.840;10.762;2023-02-12T00:12:09;7.60;99.90
8557;DHT22;4316;53.840;10.762;2023-02-12T00:14:38;7.50;99.90
8557;DHT22;4316;53.840;10.762;2023-02-12T00:17:04;7.50;99.90
8557;DHT22;4316;53.840;10.762;2023-02-12T00:19:30;7.50;99.90
8557;DHT22;4316;53.840;10.762;2023-02-12T00:21:56;7.50;99.90
8557;DHT22;4316;53.840;10.762;2023-02-12T00:24:21;7.50;99.90
8557;DHT22;4316;53.840;10.762;2023-02-12T00:26:47;7.50;99.90
8557;DHT22;4316;53.840;10.762;2023-02-12T00:29:15;7.50;99.90
8557;DHT22;4316;53.840;10.762;2023-02-12T00:31:41;7.60;99.90
8557;DHT22;4316;53.840;10.762;2023-02-12T00:34:06;7.50;99.90
8557;DHT22;4316;53.840;10.762;2023-02-12T00:36:34;7.50;99.90
8557;DHT22;4316;53.840;10.762;2023-02-12T00:39:00;7.50;99.90
8557;DHT22;4316;53.840;10.762;2023-02-12T00:41:26;7.50;99.90
8557;DHT22;4316;53.840;10.762;2023-02-12T00:43:52;7.40;99.90
8557;DHT22;4316;53.840;10.762;2023-02-12T00:46:18;7.40;99.90
8557;DHT22;4316;53.840;10.762;2023-02-12T00:48:43;7.40;99.90
8557;DHT22;4316;53.840;10.762;2023-02-12T00:51:09;7.50;99.90
8557;DHT22;4316;53.840;10.762;2023-02-12T00:53:35;7.50;99.90
8557;DHT22;4316;53.840;10.762;2023-02-12T00:56:01;7.50;99.90
8557;DHT22;4316;53.840;10.762;2023-02-12T00:58:27;7.50;99.90
8557;DHT22;4316;53.840;10.762;2023-02-12T01:00:53;7.50;99.90
8557;DHT22;4316;53.840;10.762;2023-02-12T01:03:21;7.50;99.90
8557;DHT22;4316;53.840;10.762;2023-02-12T01:05:47;7.50;99.90
8557;DHT22;4316;53.840;10.762;2023-02-12T01:08:14;7.40;99.90
8557;DHT22;4316;53.840;10.762;2023-02-12T01:10:41;7.40;99.90
8557;DHT22;4316;53.840;10.762;2023-02-12T01:13:13;7.40;99.90
8557;DHT22;4316;53.840;10.762;2023-02-12T01:15:39;7.40;99.90
8557;DHT22;4316;53.840;10.762;2023-02-12T01:18:05;7.40;99.90
8557;DHT22;4316;53.840;10.762;2023-02-12T01:20:31;7.40;99.90
8557;DHT22;4316;53.840;10.762;2023-02-12T01:22:57;7.40;99.90
8557;DHT22;4316;53.840;10.762;2023-02-12T01:25:23;7.30;99.90
8557;DHT22;4316;53.840;10.762;2023-02-12T01:27:52;7.40;99.90
8557;DHT22;4316;53.840;10.762;2023-02-12T01:30:18;7.40;99.90
8557;DHT22;4316;53.840;10.762;2023-02-12T01:32:46;7.30;99.90
8557;DHT22;4316;53.840;10.762;2023-02-12T01:35:12;7.30;99.90
8557;DHT22;4316;53.840;10.762;2023-02-12T01:37:39;7.30;99.90
8557;DHT22;4316;53.840;10.762;2023-02-12T01:40:07;7.30;99.90
8557;DHT22;4316;53.840;10.762;2023-02-12T01:42:33;7.30;99.90
8557;DHT22;4316;53.840;10.762;2023-02-12T01:47:44;7.30;99.90
8557;DHT22;4316;53.840;10.762;2023-02-12T01:50:12;7.30;99.90
8557;DHT22;4316;53.840;10.762;2023-02-12T01:52:43;7.30;99.90
8557;DHT22;4316;53.840;10.762;2023-02-12T01:55:10;7.30;99.90
8557;DHT22;4316;53.840;10.762;2023-02-12T01:57:39;7.30;99.90
8557;DHT22;4316;53.840;10.762;2023-02-12T02:00:08;7.30;99.90
8557;DHT22;4316;53.840;10.762;2023-02-12T02:02:39;7.30;99.90
8557;DHT22;4316;53.840;10.762;2023-02-12T02:05:07;7.20;99.90
8557;DHT22;4316;53.840;10.762;2023-02-12T02:07:33;7.20;99.90
8557;DHT22;4316;53.840;10.762;2023-02-12T02:09:59;7.20;99.90
8557;DHT22;4316;53.840;10.762;2023-02-12T02:12:28;7.30;99.90
8557;DHT22;4316;53.840;10.762;2023-02-12T02:15:15;7.30;99.90
8557;DHT22;4316;53.840;10.762;2023-02-12T02:23:57;7.20;99.90
8557;DHT22;4316;53.840;10.762;2023-02-12T02:30:10;7.20;99.90
8557;DHT22;4316;53.840;10.762;2023-02-12T02:32:23;7.10;99.90
8557;DHT22;4316;53.840;10.762;2023-02-12T02:37:46;7.10;99.90
8557;DHT22;4316;53.840;10.762;2023-02-12T02:40:21;7.10;99.90
8557;DHT22;4316;53.840;10.762;2023-02-12T02:45:42;7.10;99.90
8557;DHT22;4316;53.840;10.762;2023-02-12T02:48:28;7.10;99.90
8557;DHT22;4316;53.840;10.762;2023-02-12T02:51:04;7.10;99.90
8557;DHT22;4316;53.840;10.762;2023-02-12T02:53:59;7.10;99.90
8557;DHT22;4316;53.840;10.762;2023-02-12T02:56:29;7.10;99.90
8557;DHT22;4316;53.840;10.762;2023-02-12T02:58:59;7.00;99.90
8557;DHT22;4316;53.840;10.762;2023-02-12T03:01:33;7.10;99.90
8557;DHT22;4316;53.840;10.762;2023-02-12T03:04:08;7.10;99.90
8557;DHT22;4316;53.840;10.762;2023-02-12T03:12:03;7.10;99.90
8557;DHT22;4316;53.840;10.762;2023-02-12T03:14:37;7.00;99.90
8557;DHT22;4316;53.840;10.762;2023-02-12T03:17:12;7.00;99.90
8557;DHT22;4316;53.840;10.762;2023-02-12T03:19:43;7.10;99.90
8557;DHT22;4316;53.840;10.762;2023-02-12T03:22:15;7.10;99.90
8557;DHT22;4316;53.840;10.762;2023-02-12T03:24:53;7.10;99.90
8557;DHT22;4316;53.840;10.762;2023-02-12T03:27:31;7.10;99.90
8557;DHT22;4316;53.840;10.762;2023-02-12T03:29:58;7.00;99.90
8557;DHT22;4316;53.840;10.762;2023-02-12T03:35:22;7.00;99.90
8557;DHT22;4316;53.840;10.762;2023-02-12T03:41:00;7.10;99.90
8557;DHT22;4316;53.840;10.762;2023-02-12T03:43:33;7.00;99.90
8557;DHT22;4316;53.840;10.762;2023-02-12T03:49:21;7.00;99.90
8557;DHT22;4316;53.840;10.762;2023-02-12T03:51:47;7.10;99.90
8557;DHT22;4316;53.840;10.762;2023-02-12T03:54:18;7.10;99.90
8557;DHT22;4316;53.840;10.762;2023-02-12T03:56:58;7.10;99.90
8557;DHT22;4316;53.840;10.762;2023-02-12T03:59:26;7.10;99.90
8557;DHT22;4316;53.840;10.762;2023-02-12T04:01:54;7.00;99.90
8557;DHT22;4316;53.840;10.762;2023-02-12T04:04:20;7.00;99.90
8557;DHT22;4316;53.840;10.762;2023-02-12T04:06:49;7.00;99.90
8557;DHT22;4316;53.840;10.762;2023-02-12T04:09:16;7.00;99.90
8557;DHT22;4316;53.840;10.762;2023-02-12T04:12:04;7.00;99.90
8557;DHT22;4316;53.840;10.762;2023-02-12T04:14:52;7.00;99.90
8557;DHT22;4316;53.840;10.762;2023-02-12T04:25:21;7.10;99.90
8557;DHT22;4316;53.840;10.762;2023-02-12T04:28:06;7.00;99.90
8557;DHT22;4316;53.840;10.762;2023-02-12T04:30:40;7.00;99.90
8557;DHT22;4316;53.840;10.762;2023-02-12T04:33:09;7.00;99.90
8557;DHT22;4316;53.840;10.762;2023-02-12T04:36:01;7.00;99.90
8557;DHT22;4316;53.840;10.762;2023-02-12T04:41:04;7.00;99.90
8557;DHT22;4316;53.840;10.762;2023-02-12T04:43:34;7.00;99.90
8557;DHT22;4316;53.840;10.762;2023-02-12T04:46:00;7.00;99.90
8557;DHT22;4316;53.840;10.762;2023-02-12T04:48:26;7.00;99.90
8557;DHT22;4316;53.840;10.762;2023-02-12T04:50:52;7.00;99.90
8557;DHT22;4316;53.840;10.762;2023-02-12T04:53:18;6.90;99.90
8557;DHT22;4316;53.840;10.762;2023-02-12T04:55:44;6.90;99.90
8557;DHT22;4316;53.840;10.762;2023-02-12T04:58:10;7.00;99.90
8557;DHT22;4316;53.840;10.762;2023-02-12T05:00:35;7.00;99.90
8557;DHT22;4316;53.840;10.762;2023-02-12T05:03:01;6.90;99.90
8557;DHT22;4316;53.840;10.762;2023-02-12T05:05:27;6.90;99.90
8557;DHT22;4316;53.840;10.762;2023-02-12T05:07:53;7.00;99.90
8557;DHT22;4316;53.840;10.762;2023-02-12T05:10:19;6.90;99.90
8557;DHT22;4316;53.840;10.762;2023-02-12T05:12:44;6.90;99.90
8557;DHT22;4316;53.840;10.762;2023-02-12T05:15:10;6.90;99.90
8557;DHT22;4316;53.840;10.762;2023-02-12T05:17:36;6.90;99.90
8557;DHT22;4316;53.840;10.762;2023-02-12T05:20:03;6.90;99.90
8557;DHT22;4316;53.840;10.762;2023-02-12T05:22:29;6.90;99.90
8557;DHT22;4316;53.840;10.762;2023-02-12T05:24:55;6.90;99.90
8557;DHT22;4316;53.840;10.762;2023-02-12T05:27:20;6.90;99.90
8557;DHT22;4316;53.840;10.762;2023-02-12T05:29:46;6.90;99.90
8557;DHT22;4316;53.840;10.762;2023-02-12T05:32:12;6.90;99.90
8557;DHT22;4316;53.840;10.762;2023-02-12T05:34:38;6.90;99.90
8557;DHT22;4316;53.840;10.762;2023-02-12T05:37:03;6.90;99.90
8557;DHT22;4316;53.840;10.762;2023-02-12T05:39:29;6.80;99.90
8557;DHT22;4316;53.840;10.762;2023-02-12T05:41:55;6.80;99.90
8557;DHT22;4316;53.840;10.762;2023-02-12T05:44:21;6.80;99.90
8557;DHT22;4316;53.840;10.762;2023-02-12T05:46:47;6.80;99.90
8557;DHT22;4316;53.840;10.762;2023-02-12T05:49:12;6.80;99.90
8557;DHT22;4316;53.840;10.762;2023-02-12T05:51:38;6.80;99.90
8557;DHT22;4316;53.840;10.762;2023-02-12T05:54:06;6.80;99.90
8557;DHT22;4316;53.840;10.762;2023-02-12T05:56:34;6.90;99.90
8557;DHT22;4316;53.840;10.762;2023-02-12T05:59:06;6.90;99.90
8557;DHT22;4316;53.840;10.762;2023-02-12T06:01:39;6.80;99.90
8557;DHT22;4316;53.840;10.762;2023-02-12T06:04:07;6.90;99.90
8557;DHT22;4316;53.840;10.762;2023-02-12T06:06:35;6.90;99.90
8557;DHT22;4316;53.840;10.762;2023-02-12T06:09:01;6.90;99.90
8557;DHT22;4316;53.840;10.762;2023-02-12T06:11:27;6.90;99.90
8557;DHT22;4316;53.840;10.762;2023-02-12T06:13:53;6.90;99.90
8557;DHT22;4316;53.840;10.762;2023-02-12T06:16:22;6.90;99.90
8557;DHT22;4316;53.840;10.762;2023-02-12T06:18:48;6.90;99.90
8557;DHT22;4316;53.840;10.762;2023-02-12T06:21:15;6.90;99.90
8557;DHT22;4316;53.840;10.762;2023-02-12T06:23:41;6.80;99.90
8557;DHT22;4316;53.840;10.762;2023-02-12T06:26:08;6.90;99.90
8557;DHT22;4316;53.840;10.762;2023-02-12T06:28:33;6.80;99.90
8557;DHT22;4316;53.840;10.762;2023-02-12T06:30:59;6.90;99.90
8557;DHT22;4316;53.840;10.762;2023-02-12T06:33:25;6.80;99.90
8557;DHT22;4316;53.840;10.762;2023-02-12T06:35:51;6.80;99.90
8557;DHT22;4316;53.840;10.762;2023-02-12T06:38:16;6.90;99.90
8557;DHT22;4316;53.840;10.762;2023-02-12T06:40:42;6.90;99.90
8557;DHT22;4316;53.840;10.762;2023-02-12T06:43:08;6.90;99.90
8557;DHT22;4316;53.840;10.762;2023-02-12T06:45:34;6.90;99.90
8557;DHT22;4316;53.840;10.762;2023-02-12T06:47:59;6.90;99.90
8557;DHT22;4316;53.840;10.762;2023-02-12T06:50:26;6.80;99.90
8557;DHT22;4316;53.840;10.762;2023-02-12T06:52:51;6.80;99.90
8557;DHT22;4316;53.840;10.762;2023-02-12T06:55:17;6.90;99.90
8557;DHT22;4316;53.840;10.762;2023-02-12T06:57:43;6.90;99.90
8557;DHT22;4316;53.840;10.762;2023-02-12T07:00:09;6.90;99.90
8557;DHT22;4316;53.840;10.762;2023-02-12T07:02:35;6.90;99.90
8557;DHT22;4316;53.840;10.762;2023-02-12T07:05:01;6.90;99.90
8557;DHT22;4316;53.840;10.762;2023-02-12T07:07:27;6.90;99.90
8557;DHT22;4316;53.840;10.762;2023-02-12T07:09:52;7.00;99.90
8557;DHT22;4316;53.840;10.762;2023-02-12T07:12:18;7.00;99.90
8557;DHT22;4316;53.840;10.762;2023-02-12T07:14:44;7.00;99.90
8557;DHT22;4316;53.840;10.762;2023-02-12T07:17:10;7.00;99.90
8557;DHT22;4316;53.840;10.762;2023-02-12T07:19:35;7.10;99.90
8557;DHT22;4316;53.840;10.762;2023-02-12T07:22:01;7.10;99.90
8557;DHT22;4316;53.840;10.762;2023-02-12T07:24:27;7.10;99.90
8557;DHT22;4316;53.840;10.762;2023-02-12T07:26:53;7.10;99.90
8557;DHT22;4316;53.840;10.762;2023-02-12T07:29:19;7.10;99.90
8557;DHT22;4316;53.840;10.762;2023-02-12T07:31:45;7.10;99.90
8557;DHT22;4316;53.840;10.762;2023-02-12T07:34:11;7.20;99.90
8557;DHT22;4316;53.840;10.762;2023-02-12T07:36:37;7.20;99.90
8557;DHT22;4316;53.840;10.762;2023-02-12T07:39:03;7.20;99.90
8557;DHT22;4316;53.840;10.762;2023-02-12T07:41:31;7.10;99.90
8557;DHT22;4316;53.840;10.762;2023-02-12T07:44:02;7.20;99.90
8557;DHT22;4316;53.840;10.762;2023-02-12T07:49:03;7.10;99.90
8557;DHT22;4316;53.840;10.762;2023-02-12T07:51:31;7.20;99.90
8557;DHT22;4316;53.840;10.762;2023-02-12T07:53:57;7.20;99.90
8557;DHT22;4316;53.840;10.762;2023-02-12T07:56:25;7.20;99.90
8557;DHT22;4316;53.840;10.762;2023-02-12T07:58:58;7.20;99.90
8557;DHT22;4316;53.840;10.762;2023-02-12T08:01:27;7.20;99.90
8557;DHT22;4316;53.840;10.762;2023-02-12T08:03:54;7.20;99.90
8557;DHT22;4316;53.840;10.762;2023-02-12T08:06:24;7.20;99.90
8557;DHT22;4316;53.840;10.762;2023-02-12T08:08:56;7.30;99.90
8557;DHT22;4316;53.840;10.762;2023-02-12T08:11:22;7.40;99.90
8557;DHT22;4316;53.840;10.762;2023-02-12T08:13:49;7.40;99.90
8557;DHT22;4316;53.840;10.762;2023-02-12T08:16:17;7.40;99.90
8557;DHT22;4316;53.840;10.762;2023-02-12T08:18:44;7.40;99.90
8557;DHT22;4316;53.840;10.762;2023-02-12T08:21:13;7.40;99.90
8557;DHT22;4316;53.840;10.762;2023-02-12T08:23:39;7.40;99.90
8557;DHT22;4316;53.840;10.762;2023-02-12T08:26:19;7.50;99.90
8557;DHT22;4316;53.840;10.762;2023-02-12T08:28:48;7.50;99.90
8557;DHT22;4316;53.840;10.762;2023-02-12T08:31:16;7.50;99.90
8557;DHT22;4316;53.840;10.762;2023-02-12T08:33:45;7.50;99.90
8557;DHT22;4316;53.840;10.762;2023-02-12T08:36:13;7.50;99.90
8557;DHT22;4316;53.840;10.762;2023-02-12T08:38:40;7.50;99.90
8557;DHT22;4316;53.840;10.762;2023-02-12T08:41:12;7.60;99.90
8557;DHT22;4316;53.840;10.762;2023-02-12T08:43:39;7.60;99.90
8557;DHT22;4316;53.840;10.762;2023-02-12T08:46:08;7.70;99.90
8557;DHT22;4316;53.840;10.762;2023-02-12T08:48:34;7.70;99.90
8557;DHT22;4316;53.840;10.762;2023-02-12T08:53:30;7.80;99.90
8557;DHT22;4316;53.840;10.762;2023-02-12T08:55:55;7.90;99.90
8557;DHT22;4316;53.840;10.762;2023-02-12T08:58:21;8.00;99.90
8557;DHT22;4316;53.840;10.762;2023-02-12T09:00:47;8.10;99.90
8557;DHT22;4316;53.840;10.762;2023-02-12T09:03:13;8.20;99.90
8557;DHT22;4316;53.840;10.762;2023-02-12T09:05:40;8.20;99.90
8557;DHT22;4316;53.840;10.762;2023-02-12T09:08:06;8.30;99.90
8557;DHT22;4316;53.840;10.762;2023-02-12T09:10:32;8.30;99.90
8557;DHT22;4316;53.840;10.762;2023-02-12T09:12:57;8.30;99.90
8557;DHT22;4316;53.840;10.762;2023-02-12T09:15:23;8.30;99.90
8557;DHT22;4316;53.840;10.762;2023-02-12T09:17:49;8.40;99.90
8557;DHT22;4316;53.840;10.762;2023-02-12T09:20:15;8.50;99.90
8557;DHT22;4316;53.840;10.762;2023-02-12T09:22:41;8.50;99.90
8557;DHT22;4316;53.840;10.762;2023-02-12T09:25:07;8.40;99.90
8557;DHT22;4316;53.840;10.762;2023-02-12T09:27:32;8.40;99.90
8557;DHT22;4316;53.840;10.762;2023-02-12T09:29:58;8.50;99.90
8557;DHT22;4316;53.840;10.762;2023-02-12T09:32:24;8.40;99.90
8557;DHT22;4316;53.840;10.762;2023-02-12T09:34:49;8.50;99.90
8557;DHT22;4316;53.840;10.762;2023-02-12T09:37:15;8.50;99.90
8557;DHT22;4316;53.840;10.762;2023-02-12T09:39:41;8.50;99.90
8557;DHT22;4316;53.840;10.762;2023-02-12T09:45:16;8.60;99.90
8557;DHT22;4316;53.840;10.762;2023-02-12T09:53:12;8.70;99.90
8557;DHT22;4316;53.840;10.762;2023-02-12T09:55:39;8.70;99.90
8557;DHT22;4316;53.840;10.762;2023-02-12T09:58:13;8.70;99.90
8557;DHT22;4316;53.840;10.762;2023-02-12T10:00:40;8.70;99.90
8557;DHT22;4316;53.840;10.762;2023-02-12T10:03:16;8.80;99.90
8557;DHT22;4316;53.840;10.762;2023-02-12T10:05:51;8.80;99.90
8557;DHT22;4316;53.840;10.762;2023-02-12T10:14:56;9.00;99.90
8557;DHT22;4316;53.840;10.762;2023-02-12T10:29:12;9.00;99.90
8557;DHT22;4316;53.840;10.762;2023-02-12T10:31:46;9.10;99.90
8557;DHT22;4316;53.840;10.762;2023-02-12T10:34:17;9.20;99.90
8557;DHT22;4316;53.840;10.762;2023-02-12T10:36:51;9.20;99.90
8557;DHT22;4316;53.840;10.762;2023-02-12T10:39:34;9.30;99.90
8557;DHT22;4316;53.840;10.762;2023-02-12T10:44:35;9.30;99.90
8557;DHT22;4316;53.840;10.762;2023-02-12T10:47:01;9.30;99.90
8557;DHT22;4316;53.840;10.762;2023-02-12T10:49:30;9.40;99.90
8557;DHT22;4316;53.840;10.762;2023-02-12T10:52:01;9.40;99.90
8557;DHT22;4316;53.840;10.762;2023-02-12T10:54:45;9.40;99.90
8557;DHT22;4316;53.840;10.762;2023-02-12T10:57:27;9.30;99.90
8557;DHT22;4316;53.840;10.762;2023-02-12T11:00:12;9.40;99.90
8557;DHT22;4316;53.840;10.762;2023-02-12T11:02:39;9.40;99.90
8557;DHT22;4316;53.840;10.762;2023-02-12T11:05:35;9.40;99.90
8557;DHT22;4316;53.840;10.762;2023-02-12T11:08:01;9.50;99.90
8557;DHT22;4316;53.840;10.762;2023-02-12T11:10:39;9.70;99.90
8557;DHT22;4316;53.840;10.762;2023-02-12T11:13:22;9.70;99.90
8557;DHT22;4316;53.840;10.762;2023-02-12T11:15:48;9.70;99.90
8557;DHT22;4316;53.840;10.762;2023-02-12T11:18:25;9.70;99.90
8557;DHT22;4316;53.840;10.762;2023-02-12T11:20:56;9.70;99.90
8557;DHT22;4316;53.840;10.762;2023-02-12T11:23:26;9.70;99.90
8557;DHT22;4316;53.840;10.762;2023-02-12T11:26:01;9.70;99.90
8557;DHT22;4316;53.840;10.762;2023-02-12T11:28:29;9.80;99.90
8557;DHT22;4316;53.840;10.762;2023-02-12T11:30:59;9.80;99.90
8557;DHT22;4316;53.840;10.762;2023-02-12T11:33:31;9.90;99.90
8557;DHT22;4316;53.840;10.762;2023-02-12T11:36:01;10.00;99.90
8557;DHT22;4316;53.840;10.762;2023-02-12T11:38:37;10.00;99.90
8557;DHT22;4316;53.840;10.762;2023-02-12T11:41:23;10.00;99.90
8557;DHT22;4316;53.840;10.762;2023-02-12T11:43:51;10.00;99.90
8557;DHT22;4316;53.840;10.762;2023-02-12T11:46:23;10.10;99.90
8557;DHT22;4316;53.840;10.762;2023-02-12T11:48:51;10.10;99.90
8557;DHT22;4316;53.840;10.762;2023-02-12T11:51:21;10.10;99.90
8557;DHT22;4316;53.840;10.762;2023-02-12T11:53:50;10.10;99.90
8557;DHT22;4316;53.840;10.762;2023-02-12T11:56:17;10.10;99.90
8557;DHT22;4316;53.840;10.762;2023-02-12T11:58:45;10.10;99.90
8557;DHT22;4316;53.840;10.762;2023-02-12T12:07:00;10.00;99.90
8557;DHT22;4316;53.840;10.762;2023-02-12T12:09:44;10.10;99.90
8557;DHT22;4316;53.840;10.762;2023-02-12T12:12:24;10.10;99.90
8557;DHT22;4316;53.840;10.762;2023-02-12T12:15:03;10.10;99.90
8557;DHT22;4316;53.840;10.762;2023-02-12T12:17:57;10.00;99.90
8557;DHT22;4316;53.840;10.762;2023-02-12T12:23:45;9.80;99.90
8557;DHT22;4316;53.840;10.762;2023-02-12T12:26:25;9.80;99.90
8557;DHT22;4316;53.840;10.762;2023-02-12T12:29:25;9.70;99.90
8557;DHT22;4316;53.840;10.762;2023-02-12T12:32:00;9.70;99.90
8557;DHT22;4316;53.840;10.762;2023-02-12T12:34:28;9.70;99.90
8557;DHT22;4316;53.840;10.762;2023-02-12T12:39:35;9.60;99.90
8557;DHT22;4316;53.840;10.762;2023-02-12T12:50:30;9.50;99.90
8557;DHT22;4316;53.840;10.762;2023-02-12T12:53:02;9.50;99.90
8557;DHT22;4316;53.840;10.762;2023-02-12T12:58:56;9.50;99.90
8557;DHT22;4316;53.840;10.762;2023-02-12T13:01:41;9.60;99.90
8557;DHT22;4316;53.840;10.762;2023-02-12T13:04:38;9.60;99.90
8557;DHT22;4316;53.840;10.762;2023-02-12T13:09:58;9.60;99.90
8557;DHT22;4316;53.840;10.762;2023-02-12T13:15:04;9.70;99.90
8557;DHT22;4316;53.840;10.762;2023-02-12T13:17:41;9.60;99.90
8557;DHT22;4316;53.840;10.762;2023-02-12T13:20:25;9.60;99.90
8557;DHT22;4316;53.840;10.762;2023-02-12T13:22:59;9.60;99.90
8557;DHT22;4316;53.840;10.762;2023-02-12T13:25:30;9.50;99.90
8557;DHT22;4316;53.840;10.762;2023-02-12T13:27:58;9.50;99.90
8557;DHT22;4316;53.840;10.762;2023-02-12T13:35:22;9.50;99.90
8557;DHT22;4316;53.840;10.762;2023-02-12T13:37:52;9.60;99.90
8557;DHT22;4316;53.840;10.762;2023-02-12T13:40:23;9.50;99.90
8557;DHT22;4316;53.840;10.762;2023-02-12T13:48:22;9.50;99.90
8557;DHT22;4316;53.840;10.762;2023-02-12T13:53:39;9.50;99.90
8557;DHT22;4316;53.840;10.762;2023-02-12T13:58:44;9.50;99.90
8557;DHT22;4316;53.840;10.762;2023-02-12T14:04:35;9.50;99.90
8557;DHT22;4316;53.840;10.762;2023-02-12T14:07:05;9.50;99.90
8557;DHT22;4316;53.840;10.762;2023-02-12T14:09:37;9.50;99.90
8557;DHT22;4316;53.840;10.762;2023-02-12T14:20:21;9.40;99.90
8557;DHT22;4316;53.840;10.762;2023-02-12T14:30:37;9.30;99.90
8557;DHT22;4316;53.840;10.762;2023-02-12T14:36:16;9.30;99.90
8557;DHT22;4316;53.840;10.762;2023-02-12T14:41:23;9.20;99.90
8557;DHT22;4316;53.840;10.762;2023-02-12T14:51:56;9.20;99.90
8557;DHT22;4316;53.840;10.762;2023-02-12T14:54:31;9.20;99.90
8557;DHT22;4316;53.840;10.762;2023-02-12T14:57:02;9.20;99.90
8557;DHT22;4316;53.840;10.762;2023-02-12T14:59:35;9.10;99.90
8557;DHT22;4316;53.840;10.762;2023-02-12T15:02:04;9.20;99.90
8557;DHT22;4316;53.840;10.762;2023-02-12T15:04:33;9.20;99.90
8557;DHT22;4316;53.840;10.762;2023-02-12T15:07:08;9.10;99.90
8557;DHT22;4316;53.840;10.762;2023-02-12T15:10:06;9.20;99.90
8557;DHT22;4316;53.840;10.762;2023-02-12T15:12:41;9.10;99.90
8557;DHT22;4316;53.840;10.762;2023-02-12T15:15:20;9.20;99.90
8557;DHT22;4316;53.840;10.762;2023-02-12T15:21:04;9.20;99.90
8557;DHT22;4316;53.840;10.762;2023-02-12T15:23:41;9.10;99.90
8557;DHT22;4316;53.840;10.762;2023-02-12T15:26:16;9.10;99.90
8557;DHT22;4316;53.840;10.762;2023-02-12T15:28:45;9.10;99.90
8557;DHT22;4316;53.840;10.762;2023-02-12T15:31:15;9.10;99.90
8557;DHT22;4316;53.840;10.762;2023-02-12T15:33:45;9.10;99.90
8557;DHT22;4316;53.840;10.762;2023-02-12T15:36:20;9.10;99.90
8557;DHT22;4316;53.840;10.762;2023-02-12T15:39:01;9.00;99.90
8557;DHT22;4316;53.840;10.762;2023-02-12T15:41:35;9.00;99.90
8557;DHT22;4316;53.840;10.762;2023-02-12T15:44:24;9.00;99.90
8557;DHT22;4316;53.840;10.762;2023-02-12T15:49:35;9.00;99.90
8557;DHT22;4316;53.840;10.762;2023-02-12T15:52:22;8.90;99.90
8557;DHT22;4316;53.840;10.762;2023-02-12T15:54:49;8.90;99.90
8557;DHT22;4316;53.840;10.762;2023-02-12T15:57:21;8.80;99.90
8557;DHT22;4316;53.840;10.762;2023-02-12T16:00:05;8.80;99.90
8557;DHT22;4316;53.840;10.762;2023-02-12T16:02:38;8.80;99.90
8557;DHT22;4316;53.840;10.762;2023-02-12T16:05:09;8.80;99.90
8557;DHT22;4316;53.840;10.762;2023-02-12T16:07:39;8.70;99.90
8557;DHT22;4316;53.840;10.762;2023-02-12T16:10:05;8.60;99.90
8557;DHT22;4316;53.840;10.762;2023-02-12T16:12:33;8.60;99.90
8557;DHT22;4316;53.840;10.762;2023-02-12T16:15:02;8.60;99.90
8557;DHT22;4316;53.840;10.762;2023-02-12T16:17:31;8.50;99.90
8557;DHT22;4316;53.840;10.762;2023-02-12T16:20:01;8.60;99.90
8557;DHT22;4316;53.840;10.762;2023-02-12T16:22:32;8.60;99.90
8557;DHT22;4316;53.840;10.762;2023-02-12T16:24:59;8.60;99.90
8557;DHT22;4316;53.840;10.762;2023-02-12T16:27:31;8.50;99.90
8557;DHT22;4316;53.840;10.762;2023-02-12T16:30:22;8.50;99.90
8557;DHT22;4316;53.840;10.762;2023-02-12T16:32:45;8.50;99.90
8557;DHT22;4316;53.840;10.762;2023-02-12T16:47:58;8.40;99.90
8557;DHT22;4316;53.840;10.762;2023-02-12T16:50:26;8.50;99.90
8557;DHT22;4316;53.840;10.762;2023-02-12T16:53:06;8.40;99.90
8557;DHT22;4316;53.840;10.762;2023-02-12T16:55:33;8.50;99.90
8557;DHT22;4316;53.840;10.762;2023-02-12T16:58:01;8.50;99.90
8557;DHT22;4316;53.840;10.762;2023-02-12T17:00:26;8.50;99.90
8557;DHT22;4316;53.840;10.762;2023-02-12T17:02:56;8.50;99.90
8557;DHT22;4316;53.840;10.762;2023-02-12T17:05:22;8.50;99.90
8557;DHT22;4316;53.840;10.762;2023-02-12T17:07:48;8.50;99.90
8557;DHT22;4316;53.840;10.762;2023-02-12T17:10:15;8.40;99.90
8557;DHT22;4316;53.840;10.762;2023-02-12T17:12:45;8.30;99.90
8557;DHT22;4316;53.840;10.762;2023-02-12T17:15:22;8.30;99.90
8557;DHT22;4316;53.840;10.762;2023-02-12T17:17:49;8.30;99.90
8557;DHT22;4316;53.840;10.762;2023-02-12T17:20:15;8.40;99.90
8557;DHT22;4316;53.840;10.762;2023-02-12T17:22:49;8.40;99.90
8557;DHT22;4316;53.840;10.762;2023-02-12T17:25:15;8.40;99.90
8557;DHT22;4316;53.840;10.762;2023-02-12T17:27:41;8.30;99.90
8557;DHT22;4316;53.840;10.762;2023-02-12T17:30:07;8.30;99.90
8557;DHT22;4316;53.840;10.762;2023-02-12T17:32:33;8.30;99.90
8557;DHT22;4316;53.840;10.762;2023-02-12T17:34:59;8.30;99.90
8557;DHT22;4316;53.840;10.762;2023-02-12T17:37:24;8.30;99.90
8557;DHT22;4316;53.840;10.762;2023-02-12T17:39:50;8.30;99.90
8557;DHT22;4316;53.840;10.762;2023-02-12T17:42:16;8.30;99.90
8557;DHT22;4316;53.840;10.762;2023-02-12T17:44:42;8.20;99.90
8557;DHT22;4316;53.840;10.762;2023-02-12T17:47:08;8.20;99.90
8557;DHT22;4316;53.840;10.762;2023-02-12T17:49:34;8.10;99.90
8557;DHT22;4316;53.840;10.762;2023-02-12T17:52:01;8.10;99.90
8557;DHT22;4316;53.840;10.762;2023-02-12T17:54:26;8.10;99.90
8557;DHT22;4316;53.840;10.762;2023-02-12T17:56:52;8.00;99.90
8557;DHT22;4316;53.840;10.762;2023-02-12T17:59:18;8.00;99.90
8557;DHT22;4316;53.840;10.762;2023-02-12T18:01:44;8.00;99.90
8557;DHT22;4316;53.840;10.762;2023-02-12T18:04:10;8.00;99.90
8557;DHT22;4316;53.840;10.762;2023-02-12T18:06:36;8.00;99.90
8557;DHT22;4316;53.840;10.762;2023-02-12T18:09:02;8.00;99.90
8557;DHT22;4316;53.840;10.762;2023-02-12T18:11:29;8.10;99.90
8557;DHT22;4316;53.840;10.762;2023-02-12T18:13:56;8.10;99.90
8557;DHT22;4316;53.840;10.762;2023-02-12T18:16:23;8.10;99.90
8557;DHT22;4316;53.840;10.762;2023-02-12T18:18:49;8.10;99.90
8557;DHT22;4316;53.840;10.762;2023-02-12T18:21:16;8.00;99.90
8557;DHT22;4316;53.840;10.762;2023-02-12T18:23:42;7.90;99.90
8557;DHT22;4316;53.840;10.762;2023-02-12T18:26:14;7.90;99.90
8557;DHT22;4316;53.840;10.762;2023-02-12T18:28:40;8.00;99.90
8557;DHT22;4316;53.840;10.762;2023-02-12T18:31:06;8.00;99.90
8557;DHT22;4316;53.840;10.762;2023-02-12T18:33:33;8.00;99.90
8557;DHT22;4316;53.840;10.762;2023-02-12T18:36:08;8.00;99.90
8557;DHT22;4316;53.840;10.762;2023-02-12T18:38:35;8.00;99.90
8557;DHT22;4316;53.840;10.762;2023-02-12T18:41:09;7.90;99.90
8557;DHT22;4316;53.840;10.762;2023-02-12T18:43:35;7.90;99.90
8557;DHT22;4316;53.840;10.762;2023-02-12T18:46:13;7.90;99.90
8557;DHT22;4316;53.840;10.762;2023-02-12T18:48:39;7.90;99.90
8557;DHT22;4316;53.840;10.762;2023-02-12T18:51:06;7.90;99.90
8557;DHT22;4316;53.840;10.762;2023-02-12T18:53:33;7.90;99.90
8557;DHT22;4316;53.840;10.762;2023-02-12T18:56:03;7.80;99.90
8557;DHT22;4316;53.840;10.762;2023-02-12T18:58:29;7.80;99.90
8557;DHT22;4316;53.840;10.762;2023-02-12T19:00:55;7.80;99.90
8557;DHT22;4316;53.840;10.762;2023-02-12T19:03:21;7.70;99.90
8557;DHT22;4316;53.840;10.762;2023-02-12T19:05:48;7.80;99.90
8557;DHT22;4316;53.840;10.762;2023-02-12T19:08:14;7.80;99.90
8557;DHT22;4316;53.840;10.762;2023-02-12T19:10:40;7.70;99.90